Time;durP1;ratioP1;P1;durP2;ratioP2;P2;SDS_P1;SDS_P2;PMS_P1;PMS_P2;Temp;Humidity;BMP_temperature;BMP_pressure;BME280_temperature;BME280_humidity;BME280_pressure;Samples;Min_cycle;Max_cycle;Signal;HPM_P1;HPM_P2
2022/08/21 00:02:14;;;;;;;14.45;8.27;;;14.60;99.90;;;;;;5100409;28;20404;-65
2022/08/21 00:04:40;;;;;;;17.00;8.32;;;14.60;99.90;;;;;;5119992;27;20624;-65
2022/08/21 00:07:06;;;;;;;19.08;9.52;;;14.60;99.90;;;;;;5136980;27;20114;-65
2022/08/21 00:09:31;;;;;;;14.60;9.25;;;14.60;99.90;;;;;;5104708;27;20031;-65
2022/08/21 00:11:57;;;;;;;13.95;8.43;;;14.60;99.90;;;;;;5124588;27;20066;-66
2022/08/21 00:14:23;;;;;;;16.67;9.15;;;14.50;99.90;;;;;;5122988;27;20046;-65
2022/08/21 00:16:48;;;;;;;15.13;9.30;;;14.40;99.90;;;;;;5124428;27;20047;-66
2022/08/21 00:19:14;;;;;;;16.15;9.95;;;14.40;99.90;;;;;;5122006;27;20042;-65
2022/08/21 00:21:40;;;;;;;19.42;10.18;;;14.40;99.90;;;;;;5104783;27;20504;-66
2022/08/21 00:24:06;;;;;;;18.30;10.45;;;14.40;99.90;;;;;;5124645;27;20038;-65
2022/08/21 00:26:32;;;;;;;17.60;9.25;;;14.40;99.90;;;;;;5122096;27;20046;-65
2022/08/21 00:28:57;;;;;;;16.88;10.43;;;14.30;99.90;;;;;;5122406;27;20486;-65
2022/08/21 00:31:23;;;;;;;14.93;10.70;;;14.20;99.90;;;;;;5125644;27;20510;-63
2022/08/21 00:33:49;;;;;;;19.73;10.20;;;14.30;99.90;;;;;;5106249;27;20038;-64
2022/08/21 00:36:15;;;;;;;15.07;8.75;;;14.10;99.90;;;;;;5125831;27;20102;-65
2022/08/21 00:38:41;;;;;;;20.90;9.60;;;14.10;99.90;;;;;;5090165;27;20484;-67
2022/08/21 00:41:09;;;;;;;14.43;9.77;;;14.10;99.90;;;;;;5124058;27;20043;-66
2022/08/21 00:43:37;;;;;;;17.88;9.63;;;14.30;99.90;;;;;;5123050;27;20058;-64
2022/08/21 00:46:11;;;;;;;19.80;10.13;;;14.30;99.90;;;;;;5124539;27;20046;-65
2022/08/21 00:48:37;;;;;;;17.35;10.48;;;14.30;99.90;;;;;;5108859;27;20070;-65
2022/08/21 00:51:11;;;;;;;16.40;10.02;;;14.20;99.90;;;;;;5124852;27;20077;-65
2022/08/21 00:53:41;;;;;;;16.30;10.20;;;14.20;99.90;;;;;;5122981;27;20070;-65
2022/08/21 00:56:08;;;;;;;16.42;9.93;;;14.10;99.90;;;;;;5106622;27;20039;-64
2022/08/21 00:58:37;;;;;;;22.85;11.18;;;14.10;99.90;;;;;;5101662;27;20061;-64
2022/08/21 01:01:05;;;;;;;20.00;11.15;;;14.20;99.90;;;;;;5123623;27;20128;-65
2022/08/21 01:03:31;;;;;;;19.45;10.63;;;14.00;99.90;;;;;;5124341;27;20068;-66
2022/08/21 01:05:57;;;;;;;15.38;10.23;;;14.10;99.90;;;;;;5124244;27;20181;-64
2022/08/21 01:08:25;;;;;;;19.75;10.63;;;14.00;99.90;;;;;;5123129;27;20058;-66
2022/08/21 01:10:53;;;;;;;18.20;10.40;;;14.00;99.90;;;;;;5095685;27;20053;-65
2022/08/21 01:13:21;;;;;;;16.40;10.45;;;14.10;99.90;;;;;;5124192;27;20695;-65
2022/08/21 01:15:49;;;;;;;19.60;11.43;;;14.10;99.90;;;;;;5122268;27;20034;-65
2022/08/21 01:18:18;;;;;;;22.27;10.77;;;14.10;99.90;;;;;;5123798;27;20090;-65
2022/08/21 01:21:10;;;;;;;22.50;12.00;;;14.10;99.90;;;;;;5121768;27;20084;-65
2022/08/21 01:23:38;;;;;;;19.02;12.10;;;14.10;99.90;;;;;;5109547;27;20545;-65
2022/08/21 01:26:05;;;;;;;20.17;12.52;;;14.10;99.90;;;;;;5124331;27;20440;-65
2022/08/21 01:28:37;;;;;;;23.13;12.95;;;14.00;99.90;;;;;;5122632;27;20046;-65
2022/08/21 01:31:07;;;;;;;21.20;13.43;;;14.10;99.90;;;;;;5100965;27;20051;-65
2022/08/21 01:33:33;;;;;;;21.88;13.23;;;13.90;99.90;;;;;;5106178;27;20452;-65
2022/08/21 01:35:59;;;;;;;20.73;14.05;;;14.00;99.90;;;;;;5123710;27;20404;-66
2022/08/21 01:38:25;;;;;;;20.55;13.23;;;14.00;99.90;;;;;;5143169;27;20053;-65
2022/08/21 01:40:51;;;;;;;21.23;15.07;;;13.90;99.90;;;;;;5098606;27;20057;-66
2022/08/21 01:43:16;;;;;;;25.17;14.65;;;13.80;99.90;;;;;;5090359;27;20031;-65
2022/08/21 01:45:42;;;;;;;18.75;14.05;;;13.70;99.90;;;;;;5142866;27;20074;-65
2022/08/21 01:48:08;;;;;;;24.33;15.43;;;13.60;99.90;;;;;;5097314;27;20347;-65
2022/08/21 01:50:34;;;;;;;23.48;15.15;;;13.60;99.90;;;;;;5123184;27;20985;-64
2022/08/21 01:53:00;;;;;;;21.90;14.43;;;13.70;99.90;;;;;;5123822;27;20046;-65
2022/08/21 01:55:26;;;;;;;24.08;15.00;;;13.60;99.90;;;;;;5122883;27;20387;-65
2022/08/21 01:57:52;;;;;;;23.73;16.38;;;13.60;99.90;;;;;;5123197;27;20046;-66
2022/08/21 02:00:24;;;;;;;20.70;13.18;;;13.60;99.90;;;;;;5141084;27;20416;-65
2022/08/21 02:02:51;;;;;;;23.42;14.13;;;13.40;99.90;;;;;;5121750;27;20038;-64
2022/08/21 02:05:18;;;;;;;22.98;14.13;;;13.60;99.90;;;;;;5103780;27;20054;-66
2022/08/21 02:07:46;;;;;;;22.88;13.85;;;13.40;99.90;;;;;;5105949;27;20488;-65
2022/08/21 02:10:15;;;;;;;24.08;13.77;;;13.50;99.90;;;;;;5106202;27;20491;-64
2022/08/21 02:12:41;;;;;;;19.58;10.63;;;13.50;99.90;;;;;;5104848;27;20524;-65
2022/08/21 02:15:09;;;;;;;16.08;10.70;;;13.40;99.90;;;;;;5122348;27;20314;-64
2022/08/21 02:17:51;;;;;;;14.85;8.30;;;13.40;99.90;;;;;;5105352;27;20034;-65
2022/08/21 02:20:23;;;;;;;17.55;8.82;;;13.50;99.90;;;;;;5121512;27;20069;-65
2022/08/21 02:22:49;;;;;;;14.73;9.50;;;13.40;99.90;;;;;;5126482;27;20030;-64
2022/08/21 02:25:16;;;;;;;17.73;9.20;;;13.60;99.90;;;;;;5122116;27;20038;-65
2022/08/21 02:27:43;;;;;;;16.77;7.70;;;13.50;99.90;;;;;;5123613;27;20051;-64
2022/08/21 02:30:14;;;;;;;13.80;7.95;;;13.50;99.90;;;;;;5122413;27;20027;-66
2022/08/21 02:32:40;;;;;;;17.13;8.77;;;13.60;99.90;;;;;;5121251;27;20068;-64
2022/08/21 02:35:07;;;;;;;12.15;7.22;;;13.70;99.90;;;;;;5121975;27;20197;-64
2022/08/21 02:37:33;;;;;;;15.50;7.28;;;13.60;99.90;;;;;;5121761;27;20035;-64
2022/08/21 02:40:00;;;;;;;15.10;7.10;;;13.60;99.90;;;;;;5104298;27;20103;-65
2022/08/21 02:42:26;;;;;;;12.82;7.22;;;13.60;99.90;;;;;;5122860;27;20469;-64
2022/08/21 02:44:52;;;;;;;14.30;7.25;;;13.50;99.90;;;;;;5122053;27;20077;-64
2022/08/21 02:47:18;;;;;;;19.75;8.15;;;13.60;99.90;;;;;;5121871;27;20121;-64
2022/08/21 02:49:43;;;;;;;13.30;7.72;;;13.60;99.90;;;;;;5122468;27;20046;-64
2022/08/21 02:52:10;;;;;;;16.50;7.75;;;13.50;99.90;;;;;;5104916;27;20038;-63
2022/08/21 02:54:35;;;;;;;13.25;7.70;;;13.50;99.90;;;;;;5090056;27;20046;-64
2022/08/21 02:57:01;;;;;;;16.20;7.75;;;13.50;99.90;;;;;;5105892;27;20115;-64
2022/08/21 02:59:27;;;;;;;13.93;8.07;;;13.60;99.90;;;;;;5105289;27;20686;-64
2022/08/21 03:01:52;;;;;;;13.77;7.40;;;13.50;99.90;;;;;;5103250;27;20039;-65
2022/08/21 03:04:19;;;;;;;17.08;8.25;;;13.70;99.90;;;;;;5120887;27;20042;-65
2022/08/21 03:06:45;;;;;;;16.83;6.88;;;13.50;99.90;;;;;;5128416;27;20111;-65
2022/08/21 03:09:11;;;;;;;17.42;7.40;;;13.70;99.90;;;;;;5140518;27;20474;-65
2022/08/21 03:11:37;;;;;;;14.85;7.78;;;13.60;99.90;;;;;;5122860;27;20043;-65
2022/08/21 03:14:02;;;;;;;18.95;7.60;;;13.70;99.90;;;;;;5105022;27;20058;-65
2022/08/21 03:16:28;;;;;;;13.98;6.53;;;13.70;99.90;;;;;;5104708;27;20042;-65
2022/08/21 03:18:54;;;;;;;14.40;7.28;;;13.80;99.90;;;;;;5105292;27;20902;-65
2022/08/21 03:21:19;;;;;;;15.45;8.55;;;13.70;99.90;;;;;;5123293;27;20069;-65
2022/08/21 03:23:46;;;;;;;15.52;7.25;;;13.80;99.90;;;;;;5105386;27;20051;-66
2022/08/21 03:26:12;;;;;;;13.15;7.22;;;13.80;99.90;;;;;;5106741;27;20038;-66
2022/08/21 03:28:38;;;;;;;14.88;7.68;;;13.80;99.90;;;;;;5117052;27;20030;-66
2022/08/21 03:31:05;;;;;;;14.85;7.70;;;13.80;99.90;;;;;;5124718;27;20548;-64
2022/08/21 03:33:31;;;;;;;17.23;7.78;;;13.90;99.90;;;;;;5107197;27;20074;-65
2022/08/21 03:36:01;;;;;;;16.17;7.55;;;13.90;99.90;;;;;;5127714;27;20593;-65
2022/08/21 03:38:29;;;;;;;11.82;7.60;;;13.80;99.90;;;;;;5122673;27;20159;-66
2022/08/21 03:40:55;;;;;;;16.13;8.02;;;13.80;99.90;;;;;;5123359;27;20043;-65
2022/08/21 03:43:21;;;;;;;17.40;7.80;;;13.70;99.90;;;;;;5140817;27;20050;-65
2022/08/21 03:45:46;;;;;;;13.75;7.75;;;13.80;99.90;;;;;;5108265;27;20147;-64
2022/08/21 03:48:12;;;;;;;15.25;8.45;;;13.80;99.90;;;;;;5113250;27;20072;-65
2022/08/21 03:50:41;;;;;;;15.40;7.40;;;13.80;99.90;;;;;;5109993;27;20399;-65
2022/08/21 03:53:07;;;;;;;15.88;8.30;;;13.70;99.90;;;;;;5111850;27;20167;-65
2022/08/21 03:55:33;;;;;;;16.73;9.50;;;13.70;99.90;;;;;;5093941;27;20045;-65
2022/08/21 03:57:59;;;;;;;14.95;9.00;;;13.70;99.90;;;;;;5129845;27;20384;-65
2022/08/21 04:00:25;;;;;;;18.77;9.48;;;13.70;99.90;;;;;;5128595;27;20417;-64
2022/08/21 04:02:51;;;;;;;14.88;9.43;;;13.70;99.90;;;;;;5127156;27;20034;-64
2022/08/21 04:05:26;;;;;;;18.13;9.18;;;13.60;99.90;;;;;;5127905;27;20070;-64
2022/08/21 04:08:01;;;;;;;13.98;9.27;;;13.70;99.90;;;;;;5110063;27;20392;-64
2022/08/21 04:10:31;;;;;;;16.83;9.23;;;13.60;99.90;;;;;;5128097;27;20057;-65
2022/08/21 04:12:59;;;;;;;19.50;9.75;;;13.70;99.90;;;;;;5109640;27;20049;-64
2022/08/21 04:15:26;;;;;;;18.23;9.65;;;13.70;99.90;;;;;;5130857;27;20039;-65
2022/08/21 04:17:52;;;;;;;13.57;8.60;;;13.60;99.90;;;;;;5126280;27;20034;-65
2022/08/21 04:20:19;;;;;;;13.90;9.40;;;13.60;99.90;;;;;;5127731;27;21628;-65
2022/08/21 04:22:45;;;;;;;20.73;9.90;;;13.60;99.90;;;;;;5127058;27;20043;-65
2022/08/21 04:25:13;;;;;;;16.55;9.48;;;13.60;99.90;;;;;;5145833;27;20116;-66
2022/08/21 04:27:39;;;;;;;18.80;9.10;;;13.60;99.90;;;;;;5145710;27;20126;-65
2022/08/21 04:30:06;;;;;;;14.45;8.00;;;13.60;99.90;;;;;;5129039;27;20116;-65
2022/08/21 04:32:32;;;;;;;14.15;7.85;;;13.70;99.90;;;;;;5130013;27;20039;-65
2022/08/21 04:34:59;;;;;;;15.48;8.18;;;13.70;99.90;;;;;;5128917;27;20050;-64
2022/08/21 04:37:25;;;;;;;15.27;8.60;;;13.60;99.90;;;;;;5111055;27;20039;-65
2022/08/21 04:39:51;;;;;;;14.50;8.25;;;13.80;99.90;;;;;;5145136;27;20533;-65
2022/08/21 04:42:17;;;;;;;11.88;8.45;;;13.80;99.90;;;;;;5128091;27;20102;-65
2022/08/21 04:44:42;;;;;;;12.85;7.22;;;13.80;99.90;;;;;;5126194;27;20060;-64
2022/08/21 04:47:08;;;;;;;15.25;8.02;;;13.80;99.90;;;;;;5094947;27;20047;-65
2022/08/21 04:49:34;;;;;;;16.23;7.35;;;13.90;99.90;;;;;;5111490;27;20107;-65
2022/08/21 04:52:01;;;;;;;13.85;7.78;;;14.00;99.90;;;;;;5127556;27;20081;-65
2022/08/21 04:54:26;;;;;;;13.27;7.63;;;13.90;99.90;;;;;;5128115;27;20038;-65
2022/08/21 04:57:03;;;;;;;12.10;7.30;;;13.90;99.90;;;;;;5110421;27;20075;-65
2022/08/21 04:59:35;;;;;;;13.63;7.50;;;14.00;99.90;;;;;;5126409;27;20129;-65
2022/08/21 05:02:01;;;;;;;13.15;6.85;;;14.00;99.90;;;;;;5128074;27;20058;-65
2022/08/21 05:04:32;;;;;;;13.70;6.97;;;14.10;99.90;;;;;;5127177;27;20049;-65
2022/08/21 05:07:01;;;;;;;12.52;6.35;;;14.20;99.90;;;;;;5116552;27;20058;-64
2022/08/21 05:09:29;;;;;;;12.88;7.07;;;14.10;99.90;;;;;;5099483;27;20073;-66
2022/08/21 05:11:55;;;;;;;14.07;6.20;;;14.20;99.90;;;;;;5110699;27;20054;-64
2022/08/21 05:14:21;;;;;;;13.25;6.30;;;14.30;99.90;;;;;;5111016;27;20039;-64
2022/08/21 05:16:47;;;;;;;12.65;5.80;;;14.40;99.90;;;;;;5128675;27;20042;-64
2022/08/21 05:19:13;;;;;;;11.98;6.30;;;14.40;99.90;;;;;;5127641;27;20048;-66
2022/08/21 05:21:43;;;;;;;13.65;5.78;;;14.40;99.90;;;;;;5127196;27;20039;-64
2022/08/21 05:24:09;;;;;;;10.25;5.80;;;14.40;99.90;;;;;;5124990;27;20119;-65
2022/08/21 05:26:36;;;;;;;13.88;5.75;;;14.50;99.90;;;;;;5113267;27;20262;-66
2022/08/21 05:29:03;;;;;;;11.68;5.80;;;14.50;99.90;;;;;;5113049;27;20162;-65
2022/08/21 05:31:28;;;;;;;10.55;5.20;;;14.60;99.90;;;;;;5114100;27;20536;-65
2022/08/21 05:33:55;;;;;;;7.57;5.13;;;14.70;99.90;;;;;;5111898;27;20183;-65
2022/08/21 05:36:21;;;;;;;13.07;5.28;;;14.80;99.90;;;;;;5094670;27;20042;-66
2022/08/21 05:38:46;;;;;;;8.35;4.63;;;15.00;99.90;;;;;;5094848;27;20035;-65
2022/08/21 05:41:12;;;;;;;10.68;4.75;;;15.10;99.90;;;;;;5111861;27;20042;-66
2022/08/21 05:43:38;;;;;;;10.05;4.18;;;15.30;99.90;;;;;;5129203;27;20511;-66
2022/08/21 05:46:05;;;;;;;10.15;4.30;;;15.70;99.90;;;;;;5131984;27;20612;-66
2022/08/21 05:48:31;;;;;;;9.68;3.75;;;16.00;99.90;;;;;;5094692;27;20038;-65
2022/08/21 05:50:57;;;;;;;10.07;4.47;;;16.30;99.90;;;;;;5094114;27;20042;-67
2022/08/21 05:53:24;;;;;;;7.10;3.85;;;16.60;99.90;;;;;;5094956;27;20035;-66
2022/08/21 05:55:51;;;;;;;10.68;3.85;;;16.80;99.90;;;;;;5112217;27;20035;-66
2022/08/21 05:58:21;;;;;;;8.43;3.65;;;17.00;99.90;;;;;;5096794;27;20034;-64
2022/08/21 06:00:48;;;;;;;7.60;3.47;;;17.10;99.90;;;;;;5095433;27;20034;-65
2022/08/21 06:03:26;;;;;;;7.85;3.83;;;17.20;99.90;;;;;;5112160;27;20043;-66
2022/08/21 06:05:53;;;;;;;9.82;3.67;;;17.50;99.90;;;;;;5130724;27;20325;-66
2022/08/21 06:08:20;;;;;;;10.45;3.42;;;17.50;99.90;;;;;;5094016;27;20484;-65
2022/08/21 06:10:47;;;;;;;9.57;3.38;;;17.60;99.90;;;;;;5095012;27;20137;-66
2022/08/21 06:13:14;;;;;;;6.78;3.00;;;17.90;99.90;;;;;;5111802;27;20073;-65
2022/08/21 06:15:40;;;;;;;8.50;3.25;;;17.80;99.90;;;;;;5094840;27;20339;-65
2022/08/21 06:18:06;;;;;;;8.45;3.60;;;17.90;99.90;;;;;;5093616;27;20201;-66
2022/08/21 06:20:32;;;;;;;7.70;3.30;;;18.00;99.90;;;;;;5130084;27;20330;-65
2022/08/21 06:22:58;;;;;;;7.22;3.15;;;18.20;99.90;;;;;;5112329;27;20208;-65
2022/08/21 06:25:24;;;;;;;11.05;3.42;;;18.30;99.90;;;;;;5094144;27;20099;-65
2022/08/21 06:27:50;;;;;;;7.20;3.25;;;18.30;99.90;;;;;;5111473;27;20034;-66
2022/08/21 06:30:16;;;;;;;8.43;3.22;;;18.50;99.90;;;;;;5094261;27;20436;-66
2022/08/21 06:32:42;;;;;;;11.32;3.83;;;18.50;99.90;;;;;;5100983;27;20049;-65
2022/08/21 06:35:08;;;;;;;9.88;3.35;;;18.60;99.90;;;;;;5126106;27;20062;-65
2022/08/21 06:37:34;;;;;;;7.90;3.42;;;18.60;99.90;;;;;;5108652;27;20039;-64
2022/08/21 06:39:59;;;;;;;7.53;3.00;;;18.80;99.90;;;;;;5126927;27;20046;-64
2022/08/21 06:42:27;;;;;;;10.32;3.42;;;19.00;99.90;;;;;;5109602;27;20430;-64
2022/08/21 06:44:53;;;;;;;10.48;3.70;;;19.00;99.90;;;;;;5125259;27;20047;-65
2022/08/21 06:47:19;;;;;;;11.13;3.17;;;19.10;99.90;;;;;;5125428;27;20455;-65
2022/08/21 06:49:44;;;;;;;11.68;3.40;;;19.10;99.90;;;;;;5126708;27;20126;-65
2022/08/21 06:52:12;;;;;;;9.20;2.88;;;19.30;99.90;;;;;;5126219;27;20039;-66
2022/08/21 06:54:39;;;;;;;7.13;2.85;;;19.60;99.90;;;;;;5125666;27;20043;-65
2022/08/21 06:57:05;;;;;;;11.55;2.88;;;19.70;99.90;;;;;;5126072;27;20027;-66
2022/08/21 06:59:31;;;;;;;8.52;2.42;;;19.90;99.90;;;;;;5126480;27;20054;-65
2022/08/21 07:01:58;;;;;;;7.22;2.47;;;19.90;99.90;;;;;;5144790;27;20035;-65
2022/08/21 07:04:24;;;;;;;12.20;2.63;;;20.00;99.90;;;;;;5125262;27;20053;-66
2022/08/21 07:06:50;;;;;;;9.70;2.70;;;20.10;99.90;;;;;;5126646;27;20404;-65
2022/08/21 07:09:15;;;;;;;12.48;2.95;;;20.20;99.90;;;;;;5127066;27;20411;-65
2022/08/21 07:11:41;;;;;;;7.07;2.30;;;20.30;99.90;;;;;;5126284;27;20030;-66
2022/08/21 07:14:07;;;;;;;8.40;2.63;;;20.50;99.90;;;;;;5125654;27;20047;-65
2022/08/21 07:16:33;;;;;;;6.72;2.13;;;20.70;99.90;;;;;;5112639;27;20508;-65
2022/08/21 07:18:59;;;;;;;9.98;2.35;;;20.90;99.90;;;;;;5116156;27;20080;-65
2022/08/21 07:21:24;;;;;;;9.07;2.17;;;20.90;99.90;;;;;;5077655;27;20042;-66
2022/08/21 07:23:51;;;;;;;9.98;2.25;;;21.00;99.90;;;;;;5126151;27;20035;-66
2022/08/21 07:26:20;;;;;;;9.90;2.03;;;21.10;99.90;;;;;;5125049;27;20039;-65
2022/08/21 07:28:47;;;;;;;11.43;2.17;;;21.20;99.90;;;;;;5125825;27;20674;-64
2022/08/21 07:31:16;;;;;;;7.00;1.85;;;21.30;99.90;;;;;;5124459;27;20054;-65
2022/08/21 07:33:43;;;;;;;8.48;1.55;;;21.40;99.90;;;;;;5145720;27;20039;-65
2022/08/21 07:36:10;;;;;;;9.90;2.10;;;21.50;99.90;;;;;;5109020;27;20041;-66
2022/08/21 07:38:35;;;;;;;9.77;1.77;;;21.50;99.90;;;;;;5107836;27;20472;-65
2022/08/21 07:41:04;;;;;;;9.05;1.60;;;21.50;99.90;;;;;;5107859;27;20031;-65
2022/08/21 07:43:30;;;;;;;6.53;1.35;;;21.40;99.90;;;;;;5083648;27;20141;-66
2022/08/21 07:45:57;;;;;;;7.72;1.13;;;21.30;99.90;;;;;;5111266;27;20102;-65
2022/08/21 07:48:23;;;;;;;6.75;1.40;;;21.20;99.90;;;;;;5095049;27;20031;-66
2022/08/21 07:50:49;;;;;;;6.05;1.27;;;21.60;99.90;;;;;;5112831;27;20086;-64
2022/08/21 07:53:16;;;;;;;8.38;1.27;;;21.60;99.90;;;;;;5109937;27;20047;-65
2022/08/21 07:55:41;;;;;;;9.25;1.40;;;21.70;99.90;;;;;;5111795;27;20043;-64
2022/08/21 07:58:07;;;;;;;8.02;1.52;;;22.00;99.90;;;;;;5111852;27;20470;-64
2022/08/21 08:00:34;;;;;;;6.95;1.50;;;22.20;99.90;;;;;;5112928;27;20035;-65
2022/08/21 08:03:00;;;;;;;7.63;1.10;;;22.40;99.90;;;;;;5097760;27;20084;-65
2022/08/21 08:05:28;;;;;;;6.78;1.20;;;22.30;99.90;;;;;;5090976;28;20177;-65
2022/08/21 08:07:55;;;;;;;7.47;1.10;;;22.30;99.90;;;;;;5108836;28;20074;-64
2022/08/21 08:10:22;;;;;;;7.88;1.35;;;22.30;99.90;;;;;;5109459;28;20035;-64
2022/08/21 08:12:48;;;;;;;5.82;1.10;;;22.50;99.90;;;;;;5108610;28;20043;-66
2022/08/21 08:15:20;;;;;;;7.03;1.02;;;22.70;99.90;;;;;;5091108;28;20095;-66
2022/08/21 08:17:45;;;;;;;6.57;1.05;;;22.40;99.90;;;;;;5108159;28;20047;-65
2022/08/21 08:20:13;;;;;;;8.13;1.17;;;22.40;99.90;;;;;;5091780;28;20039;-65
2022/08/21 08:22:41;;;;;;;8.38;1.08;;;22.60;99.90;;;;;;5107134;28;20296;-66
2022/08/21 08:25:08;;;;;;;7.45;1.10;;;22.60;99.90;;;;;;5108985;28;20043;-65
2022/08/21 08:27:34;;;;;;;7.32;1.17;;;22.70;99.90;;;;;;5108592;28;20051;-65
2022/08/21 08:30:01;;;;;;;6.50;1.15;;;23.20;99.90;;;;;;5090279;27;20043;-65
2022/08/21 08:32:26;;;;;;;6.50;0.80;;;23.30;99.90;;;;;;5095024;27;20047;-65
2022/08/21 08:34:52;;;;;;;9.35;0.98;;;23.40;99.90;;;;;;5109764;27;20654;-65
2022/08/21 08:37:19;;;;;;;6.07;1.02;;;23.40;99.90;;;;;;5111694;27;20057;-66
2022/08/21 08:39:45;;;;;;;8.40;1.10;;;23.70;99.90;;;;;;5112564;27;20043;-66
2022/08/21 08:42:14;;;;;;;5.97;0.98;;;23.90;99.90;;;;;;5111195;27;20069;-65
2022/08/21 08:44:45;;;;;;;6.68;0.85;;;23.70;99.90;;;;;;5109485;27;20039;-65
2022/08/21 08:47:14;;;;;;;6.43;1.00;;;23.70;99.90;;;;;;5110955;27;20366;-65
2022/08/21 08:49:49;;;;;;;10.50;1.00;;;23.50;99.90;;;;;;5083413;27;20039;-65
2022/08/21 08:52:35;;;;;;;9.13;3.05;;;23.50;99.90;;;;;;5126168;27;20132;-65
2022/08/21 08:55:08;;;;;;;11.90;1.98;;;23.60;99.90;;;;;;5111732;27;20039;-64
2022/08/21 08:57:36;;;;;;;7.00;1.13;;;23.60;99.90;;;;;;5109508;27;20113;-65
2022/08/21 09:00:09;;;;;;;7.93;1.02;;;24.00;99.90;;;;;;5108988;27;20039;-66
2022/08/21 09:02:39;;;;;;;6.47;1.35;;;24.10;99.90;;;;;;5110686;27;20041;-65
2022/08/21 09:05:07;;;;;;;5.72;1.15;;;24.10;99.90;;;;;;5118916;27;20560;-65
2022/08/21 09:07:48;;;;;;;5.95;0.75;;;24.40;99.90;;;;;;5113857;27;20495;-64
2022/08/21 09:10:22;;;;;;;8.10;1.58;;;24.60;99.90;;;;;;5131105;27;20042;-65
2022/08/21 09:12:52;;;;;;;8.02;2.83;;;24.80;99.90;;;;;;5113876;27;20626;-66
2022/08/21 09:15:31;;;;;;;14.65;11.38;;;25.10;99.90;;;;;;5117737;27;20045;-65
2022/08/21 09:17:57;;;;;;;6.80;0.90;;;25.10;99.90;;;;;;5130002;27;20045;-65
2022/08/21 09:20:47;;;;;;;8.07;1.10;;;25.00;99.90;;;;;;5132997;27;20026;-64
2022/08/21 09:23:15;;;;;;;11.02;4.20;;;24.80;99.90;;;;;;5094896;27;20073;-65
2022/08/21 09:25:56;;;;;;;9.02;1.10;;;25.00;99.90;;;;;;5112018;27;20118;-65
2022/08/21 09:28:21;;;;;;;8.75;1.77;;;24.80;99.90;;;;;;5099278;27;20592;-65
2022/08/21 09:30:47;;;;;;;7.15;1.75;;;24.70;99.90;;;;;;5100262;27;20034;-64
2022/08/21 09:33:15;;;;;;;7.50;0.90;;;25.00;99.90;;;;;;5117484;27;20158;-67
2022/08/21 09:35:53;;;;;;;49.33;39.15;;;25.10;99.90;;;;;;5117266;27;20053;-66
2022/08/21 09:38:32;;;;;;;11.82;6.80;;;25.40;99.90;;;;;;5115713;27;20066;-65
2022/08/21 09:41:05;;;;;;;35.20;29.13;;;25.40;99.90;;;;;;5116532;27;20043;-65
2022/08/21 09:43:32;;;;;;;8.43;2.47;;;25.50;99.90;;;;;;5089544;27;20078;-65
2022/08/21 09:46:20;;;;;;;9.32;2.45;;;25.20;99.90;;;;;;5114954;27;20046;-65
2022/08/21 09:48:49;;;;;;;8.27;1.00;;;25.00;99.90;;;;;;5098549;27;20067;-65
2022/08/21 09:51:18;;;;;;;5.72;0.88;;;25.00;99.90;;;;;;5117434;27;20078;-66
2022/08/21 09:53:48;;;;;;;6.57;1.00;;;25.10;99.90;;;;;;5115827;27;20130;-66
2022/08/21 09:59:31;;;;;;;8.15;1.08;;;25.90;99.90;;;;;;5117956;27;20082;-66
2022/08/21 10:02:03;;;;;;;7.45;0.95;;;25.70;99.90;;;;;;5095864;27;20065;-66
2022/08/21 10:04:32;;;;;;;5.53;0.85;;;25.70;99.90;;;;;;5116287;27;20070;-67
2022/08/21 10:07:13;;;;;;;6.38;1.13;;;25.80;99.90;;;;;;5098080;27;20057;-66
2022/08/21 10:09:41;;;;;;;6.63;0.90;;;25.70;99.90;;;;;;5095728;27;20678;-66
2022/08/21 10:12:24;;;;;;;8.40;0.90;;;25.80;99.90;;;;;;5097967;27;20129;-65
2022/08/21 10:15:23;;;;;;;6.53;1.10;;;25.70;99.90;;;;;;5117391;27;20096;-67
2022/08/21 10:18:08;;;;;;;8.32;1.00;;;25.70;99.90;;;;;;5086720;27;20043;-65
2022/08/21 10:20:47;;;;;;;9.80;1.30;;;26.20;99.90;;;;;;5098362;27;20031;-66
2022/08/21 10:23:22;;;;;;;7.50;0.95;;;26.50;99.90;;;;;;5116122;27;20043;-66
2022/08/21 10:25:57;;;;;;;6.43;0.95;;;26.20;99.90;;;;;;5100503;27;20035;-68
2022/08/21 10:28:26;;;;;;;6.50;1.10;;;26.30;99.90;;;;;;5099546;27;20031;-67
2022/08/21 10:31:13;;;;;;;5.40;0.90;;;26.30;99.90;;;;;;5131926;27;20578;-65
2022/08/21 10:34:11;;;;;;;5.93;0.88;;;26.50;99.90;;;;;;5129256;27;20051;-67
2022/08/21 10:36:47;;;;;;;5.90;0.80;;;26.50;99.90;;;;;;5090687;27;20094;-67
2022/08/21 10:39:35;;;;;;;6.85;1.30;;;26.70;99.90;;;;;;5112575;27;20432;-67
2022/08/21 10:42:48;;;;;;;10.20;1.38;;;26.70;99.90;;;;;;5113233;27;20074;-67
2022/08/21 10:45:44;;;;;;;5.68;1.00;;;26.10;99.90;;;;;;5112319;27;20198;-66
2022/08/21 10:48:22;;;;;;;5.85;0.73;;;26.40;99.90;;;;;;5111525;27;20106;-67
2022/08/21 10:50:54;;;;;;;7.53;0.98;;;27.00;99.90;;;;;;5111836;27;20267;-67
2022/08/21 10:53:46;;;;;;;6.85;0.82;;;27.70;99.90;;;;;;5110846;27;20134;-66
2022/08/21 10:56:17;;;;;;;7.25;1.00;;;28.10;99.40;;;;;;5092588;27;20135;-66
2022/08/21 10:58:55;;;;;;;5.35;0.70;;;27.60;99.90;;;;;;5111434;27;20292;-66
2022/08/21 11:01:45;;;;;;;5.38;0.70;;;27.40;99.90;;;;;;5108518;27;20038;-65
2022/08/21 11:04:23;;;;;;;7.65;1.00;;;26.70;99.90;;;;;;5094286;27;20330;-66
2022/08/21 11:07:31;;;;;;;6.95;0.88;;;25.90;99.90;;;;;;5112247;27;20042;-67
2022/08/21 11:10:03;;;;;;;6.97;0.98;;;26.20;99.90;;;;;;5111873;27;20046;-68
2022/08/21 11:12:31;;;;;;;6.60;0.90;;;26.70;99.90;;;;;;5093985;27;20462;-68
2022/08/21 11:15:04;;;;;;;7.88;0.82;;;26.70;99.90;;;;;;5111003;27;20145;-68
2022/08/21 11:17:42;;;;;;;5.70;0.80;;;26.40;99.90;;;;;;5130245;27;20625;-68
2022/08/21 11:20:15;;;;;;;7.82;1.33;;;26.90;99.90;;;;;;5111770;27;20043;-68
2022/08/21 11:22:56;;;;;;;5.72;0.90;;;27.40;99.00;;;;;;5111263;27;20042;-67
2022/08/21 11:25:41;;;;;;;6.93;0.77;;;27.00;98.40;;;;;;5093253;27;20050;-67
2022/08/21 11:28:22;;;;;;;5.28;0.60;;;26.50;99.90;;;;;;5111137;27;20225;-67
2022/08/21 11:30:54;;;;;;;5.72;0.70;;;26.20;99.90;;;;;;5109538;27;20046;-67
2022/08/21 11:33:54;;;;;;;5.88;0.85;;;26.10;99.90;;;;;;5111548;27;20819;-67
2022/08/21 11:36:35;;;;;;;5.85;0.98;;;26.20;99.20;;;;;;5111450;27;20047;-67
2022/08/21 11:39:22;;;;;;;5.68;0.77;;;25.60;99.90;;;;;;5129972;27;20023;-67
2022/08/21 11:42:00;;;;;;;4.20;0.60;;;25.30;99.90;;;;;;5109477;27;20080;-67
2022/08/21 11:44:48;;;;;;;4.72;0.75;;;25.90;99.90;;;;;;5118334;27;20071;-68
2022/08/21 11:47:38;;;;;;;5.75;0.80;;;26.80;99.90;;;;;;5113464;27;20049;-66
2022/08/21 11:50:18;;;;;;;7.88;1.00;;;26.80;98.60;;;;;;5094793;27;20050;-66
2022/08/21 11:52:47;;;;;;;6.10;1.00;;;26.30;98.20;;;;;;5119433;27;20031;-64
2022/08/21 11:55:29;;;;;;;5.80;0.73;;;25.70;99.90;;;;;;5114805;27;20034;-66
2022/08/21 11:58:20;;;;;;;5.13;0.60;;;25.30;99.90;;;;;;5100928;27;20045;-66
2022/08/21 12:00:54;;;;;;;5.28;0.60;;;24.90;99.90;;;;;;5112449;27;20161;-66
2022/08/21 12:03:28;;;;;;;5.78;0.60;;;24.80;99.90;;;;;;5105476;27;20042;-66
2022/08/21 12:06:14;;;;;;;7.57;1.00;;;24.80;99.90;;;;;;5108206;27;20121;-66
2022/08/21 12:08:44;;;;;;;5.05;0.60;;;25.00;99.90;;;;;;5128420;27;20559;-68
2022/08/21 12:11:23;;;;;;;6.50;0.70;;;25.00;99.90;;;;;;5146896;27;20444;-66
2022/08/21 12:13:55;;;;;;;4.57;0.60;;;25.10;99.90;;;;;;5128510;27;20038;-66
2022/08/21 12:16:37;;;;;;;6.13;0.70;;;25.00;99.90;;;;;;5116024;27;20042;-66
2022/08/21 12:19:07;;;;;;;5.88;0.77;;;25.00;99.20;;;;;;5125112;27;20066;-66
2022/08/21 12:21:46;;;;;;;5.40;0.70;;;25.00;99.90;;;;;;5119989;27;20073;-66
2022/08/21 12:24:17;;;;;;;6.72;0.80;;;24.80;99.90;;;;;;5127594;27;20039;-65
2022/08/21 12:27:00;;;;;;;6.13;0.90;;;24.50;99.90;;;;;;5126886;27;20079;-67
2022/08/21 12:29:28;;;;;;;6.43;1.00;;;24.30;99.90;;;;;;5127771;27;20046;-65
2022/08/21 12:31:57;;;;;;;5.80;0.90;;;24.00;99.90;;;;;;5112227;27;20088;-66
2022/08/21 12:34:45;;;;;;;7.03;1.13;;;23.70;99.90;;;;;;5112495;27;20050;-66
2022/08/21 12:37:39;;;;;;;7.93;0.98;;;23.50;99.90;;;;;;5127315;27;20039;-66
2022/08/21 12:40:16;;;;;;;8.32;0.90;;;23.40;99.90;;;;;;5121579;27;20074;-66
2022/08/21 12:42:46;;;;;;;5.13;1.02;;;23.20;99.90;;;;;;5117777;27;20035;-66
2022/08/21 12:45:27;;;;;;;6.72;0.73;;;23.10;99.90;;;;;;5127690;27;20117;-66
2022/08/21 12:47:56;;;;;;;6.82;1.02;;;23.00;99.90;;;;;;5128421;27;20042;-66
2022/08/21 12:50:35;;;;;;;7.50;1.17;;;22.90;99.90;;;;;;5109746;27;20134;-68
2022/08/21 12:53:15;;;;;;;7.93;1.25;;;22.70;99.90;;;;;;5111148;27;20039;-65
2022/08/21 12:55:43;;;;;;;7.68;1.08;;;22.70;99.90;;;;;;5127634;27;21202;-64
2022/08/21 12:58:20;;;;;;;6.20;0.73;;;22.70;99.90;;;;;;5134169;27;20046;-70
2022/08/21 13:01:24;;;;;;;3.85;0.40;;;22.70;99.90;;;;;;5116103;27;20030;-67